Latest Weather Observations for Rottnest Island

IDW60801

Issued at 7:05 pm WST Tuesday 22 July 2014 (issued every 30 minutes, with the page automatically refreshed every 10 minutes)

About weather observations | Map of weather stations | Latest weather observations for WA | Other Formats
Station Details ID: 009193 Name: ROTTNEST ISLAND Lat: -32.01 Lon: 115.50 Height: 43.1 m
Data from the previous 72 hours. | See also: Recent months at Rottnest Island
Date/Time
WST
Temp
°C
App
Temp
°C
Dew
Point
Rel
Hum
%
Delta-T
°C
Wind Press
QNH
hPa
Press
MSL
hPa
Rain
since 9 am
mm
Dir
 
Spd
km/h
Gust
km/h
Spd
kts
Gust
kts
22/07:00pm 13.5 6.2 8.6 72 2.5 SSW 37 48 20 26 1020.0 1020.0 1.2
22/06:35pm 13.1 5.7 9.9 81 1.6 SSW 39 57 21 31 1019.8 - 1.2
22/06:30pm 13.1 5.2 9.2 77 2.0 SSW 41 57 22 31 1019.6 - 1.2
22/06:00pm 14.1 6.2 7.9 66 3.1 SW 39 46 21 25 1019.3 1019.3 1.2
22/05:30pm 14.2 6.5 7.3 63 3.4 SW 37 50 20 27 1019.1 - 1.2
22/05:00pm 13.8 6.5 8.8 72 2.5 SSW 37 54 20 29 1018.6 1018.6 1.2
22/04:58pm 13.6 6.8 9.1 74 2.3 SSW 35 54 19 29 1018.4 - 1.2
22/04:30pm 14.0 6.1 9.4 74 2.4 SSW 41 52 22 28 1018.2 - 1.2
22/04:05pm 14.4 6.3 8.6 68 2.9 SW 41 50 22 27 1018.1 - 1.2
22/04:00pm 13.1 8.8 9.4 78 1.9 W 22 32 12 17 1018.2 1018.2 1.2
22/03:58pm 12.8 8.9 9.3 79 1.8 W 20 28 11 15 1018.2 - 1.2
22/03:30pm 13.1 4.7 8.8 75 2.2 SW 43 54 23 29 1018.2 - 1.2
22/03:00pm 15.4 7.9 9.3 67 3.1 SW 39 54 21 29 1017.6 1017.6 1.2
22/02:30pm 15.6 7.8 4.9 49 5.0 SW 35 44 19 24 1017.5 - 1.2
22/02:00pm 15.7 7.2 5.0 49 5.1 SW 39 48 21 26 1017.4 1017.4 1.2
22/01:30pm 15.6 7.3 6.1 53 4.6 WSW 39 52 21 28 1017.1 - 1.2
22/01:03pm 14.7 7.0 7.0 60 3.8 SW 37 52 20 28 1017.2 - 1.2
22/01:00pm 14.4 7.2 7.7 64 3.3 S 35 57 19 31 1017.2 1017.2 1.2
22/12:50pm 13.9 6.9 8.5 70 2.7 SSW 35 54 19 29 1016.8 - 1.2
22/12:30pm 15.2 7.6 5.7 53 4.5 SW 35 43 19 23 1017.3 - 1.2
22/12:00pm 14.4 7.2 6.0 57 4.0 SW 33 50 18 27 1017.3 1017.3 1.2
22/11:48am 13.4 6.0 8.3 71 2.5 WSW 37 44 20 24 1017.7 - 1.2
22/11:30am 14.3 7.5 7.8 65 3.2 SSW 33 43 18 23 1017.6 - 1.2
22/11:00am 13.9 7.1 7.7 66 3.1 SSW 33 44 18 24 1017.8 1017.8 1.2
22/10:30am 12.2 5.4 9.2 82 1.5 S 35 44 19 24 1017.6 - 1.2
22/10:03am 11.6 5.8 7.9 78 1.8 SSW 28 48 15 26 1017.8 - 0.8
22/10:00am 12.9 8.0 8.6 75 2.1 S 24 37 13 20 1017.8 1017.8 0.4
22/09:30am 12.8 6.0 7.0 68 2.8 SSW 32 50 17 27 1017.3 - 0.2
22/09:09am 11.7 5.9 8.0 78 1.8 S 28 46 15 25 1017.1 - 0.2
22/09:00am 11.6 6.7 8.5 81 1.5 SSW 24 44 13 24 1017.0 1017.0 15.8
22/08:49am 12.0 6.5 9.0 82 1.5 S 28 46 15 25 1017.0 - 15.4
22/08:30am 11.3 9.1 9.4 88 1.0 ESE 11 20 6 11 1016.7 - 15.4
22/08:00am 10.4 6.3 8.5 88 0.9 SE 20 26 11 14 1016.4 1016.4 14.6
22/07:30am 10.6 6.4 8.2 85 1.2 SE 20 28 11 15 1016.0 - 14.2
22/07:00am 11.0 6.9 8.0 82 1.5 SE 19 28 10 15 1015.3 1015.2 11.0
22/06:30am 11.4 6.6 8.8 84 1.3 S 24 32 13 17 1015.0 - 11.0
22/06:00am 12.4 4.8 8.9 79 1.8 S 39 48 21 26 1013.6 1013.5 11.0
22/05:45am 12.6 6.6 6.9 68 2.7 SSW 28 50 15 27 1013.7 - 10.8
22/05:30am 10.4 5.2 7.3 81 1.5 SW 24 37 13 20 1014.0 - 10.8
22/05:12am 11.5 0.8 6.4 71 2.4 SW 52 70 28 38 1013.9 - 10.0
22/05:02am 11.9 0.6 7.8 76 2.0 SW 57 65 31 35 1013.8 - 10.0
22/05:00am 11.9 3.9 7.4 74 2.2 SW 39 69 21 37 1013.9 1013.8 10.0
22/04:57am 12.6 5.6 6.9 68 2.7 SSW 33 69 18 37 1013.7 - 10.0
22/04:30am 12.5 3.9 6.5 67 2.9 SSW 41 46 22 25 1013.4 - 10.0
22/04:00am 12.2 2.9 7.7 74 2.2 SW 46 54 25 29 1013.3 1013.2 10.0
22/03:30am 11.5 4.7 9.1 85 1.2 WSW 35 43 19 23 1013.4 - 10.0
22/03:23am 11.0 0.4 8.6 85 1.2 WSW 54 72 29 39 1013.5 - 9.2
22/03:10am 12.0 0.5 8.8 81 1.6 WSW 59 70 32 38 1013.1 - 7.8
22/03:07am 13.8 6.4 8.2 69 2.8 SW 37 63 20 34 1012.7 - 7.8
22/03:00am 13.8 6.6 7.8 67 3.0 SW 35 46 19 25 1012.5 1012.4 7.8
22/02:30am 13.7 5.8 7.7 67 3.0 SW 39 50 21 27 1012.2 - 7.8
22/02:00am 13.5 5.3 8.4 71 2.6 WSW 41 56 22 30 1012.3 1012.2 7.8
22/01:30am 13.4 6.3 9.6 78 1.9 SW 37 56 20 30 1012.1 - 7.8
22/01:26am 13.3 7.1 9.2 76 2.1 SW 32 56 17 30 1012.1 - 7.8
22/01:00am 12.9 6.6 9.0 77 2.0 WSW 32 39 17 21 1012.5 1012.4 7.6
22/12:30am 11.8 7.9 9.5 86 1.2 W 20 30 11 16 1012.5 - 7.0
22/12:19am 11.5 5.2 8.9 84 1.3 WSW 32 50 17 27 1012.6 - 6.2
22/12:09am 13.0 5.4 9.1 77 2.0 W 39 50 21 27 1012.5 - 5.0
22/12:00am 13.5 10.2 9.4 76 2.1 WNW 17 22 9 12 1012.2 1012.1 5.0
 
Date/Time
WST
Temp
°C
App
Temp
°C
Dew
Point
Rel
Hum
%
Delta-T
°C
Wind Press
QNH
hPa
Press
MSL
hPa
Rain
since 9 am
mm
Dir
 
Spd
km/h
Gust
km/h
Spd
kts
Gust
kts
21/11:30pm 13.1 10.2 9.5 79 1.8 W 15 19 8 10 1012.3 - 5.0
21/11:00pm 13.1 10.2 9.5 79 1.8 W 15 20 8 11 1013.0 1012.9 4.8
21/10:30pm 12.7 9.9 10.1 84 1.3 SW 15 20 8 11 1013.0 - 4.6
21/10:00pm 12.6 6.0 10.0 84 1.3 WSW 35 44 19 24 1013.5 1013.4 4.6
21/09:48pm 13.2 7.9 10.0 81 1.7 WSW 28 48 15 26 1013.5 - 4.6
21/09:30pm 14.1 10.1 9.1 72 2.5 W 20 28 11 15 1013.2 - 4.6
21/09:00pm 13.9 8.3 8.9 72 2.5 WSW 28 33 15 18 1012.8 1012.7 4.6
21/08:30pm 13.5 9.7 9.7 78 2.0 WSW 20 24 11 13 1012.5 - 4.6
21/08:00pm 13.4 6.8 10.0 80 1.8 W 35 48 19 26 1012.8 1012.7 4.4
21/07:30pm 13.9 7.6 10.9 82 1.6 WSW 35 56 19 30 1012.7 - 4.2
21/07:19pm 13.6 8.3 11.1 85 1.3 WSW 30 48 16 26 1012.8 - 4.2
21/07:00pm 13.9 8.2 11.2 84 1.4 WSW 32 46 17 25 1013.2 1013.1 4.0
21/06:30pm 14.2 6.1 10.8 80 1.8 WSW 44 57 24 31 1012.4 - 3.8
21/06:29pm 14.3 5.9 10.9 80 1.8 WSW 46 57 25 31 1012.3 - 3.8
21/06:00pm 15.1 7.6 12.1 82 1.6 W 43 57 23 31 1012.9 1012.8 3.8
21/05:30pm 16.0 7.7 11.4 74 2.5 WNW 46 54 25 29 1012.6 - 3.8
21/05:00pm 17.4 10.2 9.3 59 4.2 NW 37 50 20 27 1012.3 1012.2 3.8
21/04:30pm 17.3 10.5 9.2 59 4.2 NW 35 46 19 25 1012.4 - 3.8
21/04:00pm 17.8 11.2 9.9 60 4.2 NW 35 48 19 26 1012.6 1012.5 3.8
21/03:30pm 17.6 10.6 11.2 66 3.5 NW 39 46 21 25 1012.7 - 3.8
21/03:00pm 17.2 9.9 10.3 64 3.7 NNW 39 48 21 26 1012.7 1012.6 3.8
21/02:30pm 17.0 9.6 9.9 63 3.7 NW 39 50 21 27 1012.8 - 3.8
21/02:00pm 16.5 10.1 10.8 69 3.0 NW 35 50 19 27 1013.3 1013.2 3.8
21/01:30pm 16.6 11.1 12.4 76 2.3 NW 33 48 18 26 1013.8 - 3.8
21/01:20pm 15.6 11.0 12.4 81 1.8 NNW 28 46 15 25 1014.0 - 3.8
21/01:00pm 14.0 9.7 12.0 88 1.1 NNW 26 35 14 19 1014.3 1014.2 3.8
21/12:30pm 14.5 9.2 12.5 88 1.1 NW 32 41 17 22 1014.9 - 3.4
21/12:11pm 14.8 9.7 11.8 82 1.6 NNW 30 52 16 28 1015.1 - 0.6
21/12:00pm 16.2 13.2 12.7 80 1.9 NNW 20 28 11 15 1015.2 1015.1 0.2
21/11:30am 14.2 10.6 11.9 86 1.2 WNW 22 30 12 16 1016.0 - 0.0
21/11:00am 14.8 8.7 11.9 83 1.6 NW 35 50 19 27 1016.3 1016.3 0.0
21/10:30am 15.7 8.6 10.9 73 2.6 NNW 39 50 21 27 1016.3 - 0.0
21/10:00am 16.6 11.0 10.2 66 3.4 NNW 30 37 16 20 1016.4 1016.4 0.0
21/09:30am 16.5 11.1 9.4 63 3.7 NNW 28 37 15 20 1016.6 - 0.0
21/09:00am 15.6 10.6 9.5 67 3.2 NNW 26 33 14 18 1016.5 1016.5 0.4
21/08:30am 14.9 11.3 9.9 72 2.6 NNW 19 22 10 12 1016.5 - 0.4
21/08:00am 13.9 10.7 9.9 77 2.1 WNW 17 20 9 11 1016.7 1016.7 0.4
21/07:30am 14.8 10.1 7.6 62 3.6 NW 22 32 12 17 1016.6 - 0.4
21/07:00am 15.0 10.6 6.6 57 4.1 NNW 19 26 10 14 1016.4 1016.4 0.4
21/06:30am 14.4 10.5 7.0 61 3.6 NW 17 22 9 12 1016.5 - 0.4
21/06:00am 13.8 9.9 6.9 63 3.3 WNW 17 22 9 12 1016.5 1016.5 0.4
21/05:30am 13.5 9.4 6.4 62 3.4 W 17 22 9 12 1016.4 - 0.4
21/05:00am 14.1 9.6 6.2 59 3.8 W 19 24 10 13 1016.3 1016.3 0.4
21/04:30am 14.5 10.3 7.5 63 3.5 W 19 24 10 13 1016.4 - 0.4
21/04:00am 14.7 10.1 8.0 64 3.3 W 22 28 12 15 1016.4 1016.4 0.4
21/03:30am 14.7 10.1 8.2 65 3.3 W 22 33 12 18 1016.2 - 0.4
21/03:00am 14.5 10.0 8.7 68 2.9 WSW 22 28 12 15 1016.1 1016.0 0.4
21/02:30am 14.4 9.3 9.2 71 2.7 WSW 26 32 14 17 1016.1 - 0.4
21/02:00am 14.3 9.3 9.7 74 2.4 WSW 26 33 14 18 1016.0 1015.9 0.4
21/01:30am 14.6 9.4 10.4 76 2.2 WSW 28 37 15 20 1016.2 - 0.4
21/01:00am 14.5 9.5 11.1 80 1.8 WSW 28 37 15 20 1016.3 1016.3 0.4
21/12:30am 14.6 9.4 11.7 83 1.6 WSW 30 39 16 21 1016.3 - 0.4
21/12:00am 14.4 8.6 11.6 83 1.5 WSW 33 41 18 22 1016.4 1016.4 0.2
 
Date/Time
WST
Temp
°C
App
Temp
°C
Dew
Point
Rel
Hum
%
Delta-T
°C
Wind Press
QNH
hPa
Press
MSL
hPa
Rain
since 9 am
mm
Dir
 
Spd
km/h
Gust
km/h
Spd
kts
Gust
kts
20/11:30pm 15.3 10.4 11.3 77 2.1 WSW 28 32 15 17 1016.6 - 0.2
20/11:00pm 15.2 10.4 11.6 79 1.9 WSW 28 35 15 19 1016.9 1016.9 0.2
20/10:30pm 14.8 10.4 11.8 82 1.6 WSW 26 33 14 18 1017.1 - 0.2
20/10:00pm 14.9 10.4 11.5 80 1.8 WSW 26 33 14 18 1016.9 1016.9 0.2
20/09:30pm 15.3 13.4 11.7 79 1.9 WSW 13 17 7 9 1016.7 - 0.2
20/09:00pm 15.6 13.8 10.8 73 2.5 W 11 15 6 8 1016.8 1016.8 0.2
20/08:30pm 15.5 13.7 9.6 68 3.1 S 9 13 5 7 1016.6 - 0.2
20/08:00pm 15.1 12.5 9.2 68 3.0 SSW 13 15 7 8 1016.3 1016.3 0.2
20/07:30pm 14.9 11.9 9.1 68 3.0 S 15 20 8 11 1016.2 - 0.2
20/07:00pm 14.5 11.5 9.1 70 2.8 S 15 19 8 10 1016.0 1015.9 0.2
20/06:30pm 14.2 11.4 8.4 68 2.9 S 13 19 7 10 1015.7 - 0.2
20/06:00pm 14.4 11.7 9.0 70 2.7 S 13 15 7 8 1015.4 1015.3 0.2
20/05:30pm 14.7 10.7 9.1 69 2.9 S 20 24 11 13 1015.0 - 0.2
20/05:00pm 15.3 11.0 9.4 68 3.0 S 22 28 12 15 1014.8 1014.7 0.2
20/04:30pm 15.6 10.9 9.1 65 3.3 SSW 24 33 13 18 1014.6 - 0.2
20/04:00pm 15.8 10.8 9.5 66 3.3 SSW 26 33 14 18 1014.3 1014.2 0.2
20/03:30pm 16.1 11.5 9.8 66 3.3 SSW 24 30 13 16 1014.0 - 0.2
20/03:00pm 15.7 11.9 9.8 68 3.1 SSW 20 28 11 15 1013.7 1013.6 0.2
20/02:30pm 15.6 11.3 9.5 67 3.2 SSW 22 28 12 15 1013.5 - 0.2
20/02:00pm 16.6 13.7 11.1 70 3.0 SSW 17 24 9 13 1013.4 1013.3 0.2
20/01:30pm 16.4 13.5 11.1 71 2.8 S 17 20 9 11 1013.3 - 0.2
20/01:00pm 15.5 12.3 11.1 75 2.4 S 19 26 10 14 1013.2 1013.1 0.2
20/12:30pm 15.1 12.3 11.3 78 2.0 S 17 20 9 11 1013.2 - 0.2
20/12:00pm 14.3 10.9 10.5 78 2.0 S 19 24 10 13 1013.4 1013.3 0.2
20/11:30am 14.4 11.7 11.6 83 1.5 SSE 17 24 9 13 1013.5 - 0.2
20/11:00am 13.4 11.0 11.5 88 1.0 SSE 15 20 8 11 1013.7 1013.6 0.2
20/10:30am 13.2 12.4 11.8 91 0.7 ESE 7 11 4 6 1013.7 - 0.2
20/10:00am 13.1 11.2 11.8 92 0.7 E 13 19 7 10 1013.4 1013.3 0.2
20/09:30am 12.5 10.0 11.1 91 0.7 E 15 24 8 13 1013.1 - 0.2
20/09:00am 13.1 11.2 11.7 91 0.7 ENE 13 19 7 10 1012.6 1012.5 7.4
20/08:30am 13.1 11.2 11.7 91 0.7 ENE 13 17 7 9 1012.2 - 7.4
20/08:00am 13.0 11.4 11.6 91 0.7 NNE 11 15 6 8 1011.9 1011.8 7.4
20/07:30am 12.5 10.5 11.4 93 0.6 N 13 15 7 8 1011.4 - 7.4
20/07:00am 12.1 9.6 11.2 94 0.5 N 15 17 8 9 1011.0 1010.9 7.4
20/06:30am 12.1 9.2 11.0 93 0.6 NNE 17 19 9 10 1010.7 - 7.4
20/06:00am 12.0 10.2 10.7 92 0.7 NE 11 15 6 8 1010.8 1010.7 7.2
20/05:30am 12.1 9.9 10.7 91 0.7 NE 13 17 7 9 1010.9 - 6.6
20/05:00am 12.2 9.9 10.4 89 0.9 NNE 13 15 7 8 1011.2 1011.1 4.0
20/04:30am 12.2 9.4 10.1 87 1.1 N 15 19 8 10 1011.2 - 1.6
20/04:00am 12.5 8.8 10.0 85 1.3 NNE 20 26 11 14 1010.7 1010.6 1.0
20/03:30am 12.3 8.7 9.9 85 1.2 NNE 19 24 10 13 1010.4 - 1.0
20/03:00am 12.6 8.5 10.0 84 1.3 NNE 22 30 12 16 1010.4 1010.3 1.0
20/02:30am 12.5 8.3 9.9 84 1.3 NNE 22 32 12 17 1010.3 - 1.0
20/02:00am 12.8 7.1 9.8 82 1.5 NNE 30 35 16 19 1010.1 1010.0 1.0
20/01:30am 13.5 7.9 10.3 81 1.7 NNE 30 39 16 21 1010.0 - 1.0
20/01:00am 13.6 6.6 9.8 78 2.0 NNE 37 48 20 26 1010.0 1009.9 1.0
20/12:30am 14.1 9.0 10.7 80 1.8 N 28 39 15 21 1010.2 - 1.0
20/12:00am 14.2 8.8 10.8 80 1.8 N 30 41 16 22 1010.4 1010.3 1.0
 
Date/Time
WST
Temp
°C
App
Temp
°C
Dew
Point
Rel
Hum
%
Delta-T
°C
Wind Press
QNH
hPa
Press
MSL
hPa
Rain
since 9 am
mm
Dir
 
Spd
km/h
Gust
km/h
Spd
kts
Gust
kts
19/11:30pm 14.5 9.4 10.5 77 2.1 N 28 43 15 23 1010.9 - 1.0
19/11:00pm 14.0 8.3 11.0 82 1.6 N 32 39 17 21 1011.0 1010.9 1.0
19/10:30pm 15.2 10.1 10.6 74 2.4 N 28 35 15 19 1011.4 - 1.0
19/10:00pm 15.4 8.6 9.1 66 3.2 N 35 44 19 24 1011.7 1011.6 1.0
19/09:30pm 15.5 9.0 9.0 65 3.3 N 33 43 18 23 1012.0 - 1.0
19/09:00pm 14.8 9.0 9.6 71 2.7 N 30 41 16 22 1011.7 1011.6 1.0
19/08:30pm 14.5 7.1 11.3 81 1.7 N 41 54 22 29 1012.1 - 1.0
19/08:00pm 14.6 5.2 8.8 68 2.9 N 48 61 26 33 1012.0 1011.9 1.0
19/07:30pm 14.3 4.4 9.7 74 2.4 N 52 74 28 40 1012.7 - 1.0

Other Formats:

Comma delimited format used in spreadsheet applications
http://www.bom.gov.au/fwo/IDW60801/IDW60801.94602.axf

JavaScript Object Notation format (JSON) in row-major order
http://www.bom.gov.au/fwo/IDW60801/IDW60801.94602.json